createdAt,value
2023-04-16T00:00:07.038Z,14.80
2023-04-16T00:03:01.127Z,13.70
2023-04-16T00:05:29.247Z,13.10
2023-04-16T00:07:57.119Z,14.60
2023-04-16T00:10:24.938Z,15.00
2023-04-16T00:12:52.766Z,15.00
2023-04-16T00:15:21.130Z,13.80
2023-04-16T00:17:49.045Z,15.20
2023-04-16T00:20:16.986Z,13.40
2023-04-16T00:22:44.823Z,14.00
2023-04-16T00:25:13.864Z,14.90
2023-04-16T00:27:41.601Z,13.30
2023-04-16T00:30:09.922Z,15.20
2023-04-16T00:32:38.107Z,14.80
2023-04-16T00:35:07.246Z,13.80
2023-04-16T00:37:35.282Z,20.70
2023-04-16T00:40:03.233Z,21.80
2023-04-16T00:42:31.250Z,16.60
2023-04-16T00:44:59.094Z,20.30
2023-04-16T00:47:28.311Z,21.90
2023-04-16T00:49:56.184Z,21.20
2023-04-16T00:52:24.026Z,22.70
2023-04-16T00:54:52.868Z,28.30
2023-04-16T00:57:23.846Z,35.10
2023-04-16T00:59:51.648Z,27.10
2023-04-16T01:02:19.774Z,24.60
2023-04-16T01:04:47.766Z,28.60
2023-04-16T01:07:15.841Z,25.80
2023-04-16T01:09:43.811Z,22.50
2023-04-16T01:12:11.770Z,30.60
2023-04-16T01:14:39.634Z,33.50
2023-04-16T01:17:07.504Z,23.80
2023-04-16T01:19:36.533Z,29.80
2023-04-16T01:22:04.883Z,24.50
2023-04-16T01:24:34.047Z,28.90
2023-04-16T01:27:02.025Z,27.40
2023-04-16T01:29:30.009Z,24.60
2023-04-16T01:31:58.720Z,22.40
2023-04-16T01:34:28.952Z,21.30
2023-04-16T01:36:57.089Z,23.10
2023-04-16T01:39:24.934Z,21.70
2023-04-16T01:41:52.772Z,22.30
2023-04-16T01:44:21.942Z,24.00
2023-04-16T01:46:50.007Z,24.10
2023-04-16T01:49:17.968Z,18.80
2023-04-16T01:51:45.850Z,23.20
2023-04-16T01:54:13.874Z,19.70
2023-04-16T01:56:41.782Z,20.40
2023-04-16T01:59:09.995Z,23.20
2023-04-16T02:01:40.595Z,19.80
2023-04-16T02:04:08.935Z,27.40
2023-04-16T02:06:37.326Z,22.40
2023-04-16T02:09:05.078Z,25.10
2023-04-16T02:11:33.520Z,24.50
2023-04-16T02:14:01.352Z,21.10
2023-04-16T02:16:29.319Z,23.70
2023-04-16T02:19:04.757Z,20.70
2023-04-16T02:21:35.796Z,23.80
2023-04-16T02:24:03.973Z,22.60
2023-04-16T02:26:32.087Z,20.60
2023-04-16T02:29:04.825Z,23.90
2023-04-16T02:31:38.896Z,20.40
2023-04-16T02:34:07.498Z,22.50
2023-04-16T02:36:35.673Z,21.30
2023-04-16T02:39:03.603Z,22.70
2023-04-16T02:41:31.509Z,19.50
2023-04-16T02:43:59.323Z,22.00
2023-04-16T02:46:27.220Z,22.10
2023-04-16T02:48:55.214Z,23.70
2023-04-16T02:51:23.073Z,24.10
2023-04-16T02:53:51.046Z,25.00
2023-04-16T02:56:18.875Z,20.90
2023-04-16T02:58:46.721Z,22.60
2023-04-16T03:01:14.624Z,20.60
2023-04-16T03:03:42.617Z,24.30
2023-04-16T03:06:10.545Z,22.20
2023-04-16T03:08:38.376Z,20.30
2023-04-16T03:11:06.425Z,20.30
2023-04-16T03:13:34.698Z,19.20
2023-04-16T03:16:02.730Z,22.00
2023-04-16T03:18:30.619Z,22.00
2023-04-16T03:20:58.379Z,23.10
2023-04-16T03:23:26.491Z,23.10
2023-04-16T03:25:54.438Z,23.00
2023-04-16T03:28:22.151Z,24.10
2023-04-16T03:30:53.752Z,17.90
2023-04-16T03:33:22.959Z,23.10
2023-04-16T03:35:57.384Z,23.00
2023-04-16T03:38:26.893Z,23.80
2023-04-16T03:40:57.012Z,20.90
2023-04-16T03:43:24.876Z,20.40
2023-04-16T03:45:53.261Z,22.70
2023-04-16T03:48:23.712Z,24.00
2023-04-16T03:50:51.594Z,23.40
2023-04-16T03:53:20.646Z,21.70
2023-04-16T03:55:52.715Z,22.20
2023-04-16T03:58:21.276Z,19.10
2023-04-16T04:00:49.358Z,23.00
2023-04-16T04:03:18.100Z,23.50
2023-04-16T04:05:47.330Z,23.70
2023-04-16T04:08:17.447Z,23.20
2023-04-16T04:10:46.116Z,22.30
2023-04-16T04:13:14.881Z,22.20
2023-04-16T04:15:44.538Z,22.10
2023-04-16T04:18:12.558Z,20.60
2023-04-16T04:20:41.276Z,21.90
2023-04-16T04:23:09.492Z,25.20
2023-04-16T04:25:37.489Z,23.60
2023-04-16T04:28:05.332Z,23.50
2023-04-16T04:30:33.211Z,23.40
2023-04-16T04:33:03.773Z,23.40
2023-04-16T04:35:31.878Z,22.60
2023-04-16T04:38:02.850Z,25.10
2023-04-16T04:40:32.179Z,22.70
2023-04-16T04:43:00.030Z,24.00
2023-04-16T04:45:31.206Z,21.10
2023-04-16T04:48:00.262Z,23.30
2023-04-16T04:50:29.049Z,20.60
2023-04-16T04:52:56.895Z,23.30
2023-04-16T04:55:25.031Z,20.10
2023-04-16T04:57:53.033Z,23.40
2023-04-16T05:00:23.118Z,25.10
2023-04-16T05:02:54.827Z,21.20
2023-04-16T05:05:24.115Z,20.10
2023-04-16T05:07:52.075Z,20.00
2023-04-16T05:10:20.030Z,20.60
2023-04-16T05:12:51.139Z,22.40
2023-04-16T05:15:19.077Z,22.80
2023-04-16T05:17:46.952Z,18.50
2023-04-16T05:20:17.191Z,22.10
2023-04-16T05:22:45.112Z,20.80
2023-04-16T05:25:12.890Z,21.50
2023-04-16T05:27:41.320Z,19.80
2023-04-16T05:30:09.957Z,20.80
2023-04-16T05:32:39.852Z,22.90
2023-04-16T05:35:09.749Z,22.20
2023-04-16T05:37:37.550Z,21.00
2023-04-16T05:40:07.755Z,20.00
2023-04-16T05:42:35.669Z,21.90
2023-04-16T05:45:05.086Z,19.10
2023-04-16T05:47:32.952Z,21.00
2023-04-16T05:50:00.923Z,21.70
2023-04-16T05:52:28.812Z,19.60
2023-04-16T05:55:01.491Z,20.20
2023-04-16T05:57:30.145Z,20.60
2023-04-16T05:59:58.118Z,20.00
2023-04-16T06:02:26.363Z,24.00
2023-04-16T06:04:55.793Z,20.80
2023-04-16T06:07:23.634Z,20.30
2023-04-16T06:09:51.472Z,18.70
2023-04-16T06:12:19.408Z,22.10
2023-04-16T06:14:47.268Z,23.00
2023-04-16T06:17:15.132Z,18.80
2023-04-16T06:19:43.193Z,24.10
2023-04-16T06:22:11.405Z,23.40
2023-04-16T06:24:39.343Z,24.50
2023-04-16T06:27:07.437Z,23.30
2023-04-16T06:29:41.258Z,24.60
2023-04-16T06:32:09.922Z,24.30
2023-04-16T06:34:39.509Z,21.40
2023-04-16T06:37:10.353Z,19.80
2023-04-16T06:39:40.799Z,22.50
2023-04-16T06:42:08.699Z,22.20
2023-04-16T06:44:36.514Z,22.90
2023-04-16T06:47:04.766Z,19.10
2023-04-16T06:49:32.752Z,20.40
2023-04-16T06:52:00.928Z,19.50
2023-04-16T06:54:28.660Z,18.10
2023-04-16T06:56:56.812Z,20.30
2023-04-16T06:59:27.002Z,19.00
2023-04-16T07:01:55.457Z,16.40
2023-04-16T07:04:24.325Z,17.60
2023-04-16T07:06:52.427Z,19.20
2023-04-16T07:09:20.223Z,18.50
2023-04-16T07:11:48.468Z,18.90
2023-04-16T07:14:16.445Z,17.50
2023-04-16T07:16:44.590Z,22.00
2023-04-16T07:19:12.983Z,20.50
2023-04-16T07:21:43.780Z,18.20
2023-04-16T07:24:11.850Z,17.20
2023-04-16T07:26:40.097Z,19.80
2023-04-16T07:29:08.019Z,19.90
2023-04-16T07:31:36.174Z,20.30
2023-04-16T07:34:04.087Z,20.20
2023-04-16T07:36:32.371Z,21.10
2023-04-16T07:39:00.431Z,19.20
2023-04-16T07:41:29.713Z,20.40
2023-04-16T07:43:58.095Z,19.10
2023-04-16T07:46:30.537Z,20.80
2023-04-16T07:49:05.635Z,19.50
2023-04-16T07:51:33.459Z,18.80
2023-04-16T07:54:01.441Z,19.40
2023-04-16T07:56:29.422Z,19.60
2023-04-16T07:58:58.334Z,18.30
2023-04-16T08:01:31.380Z,24.80
2023-04-16T08:03:59.855Z,22.10
2023-04-16T08:06:27.933Z,20.60
2023-04-16T08:08:56.291Z,20.80
2023-04-16T08:11:24.495Z,20.80
2023-04-16T08:13:52.258Z,19.10
2023-04-16T08:16:20.659Z,19.20
2023-04-16T08:18:49.142Z,24.90
2023-04-16T08:21:17.497Z,20.50
2023-04-16T08:23:45.538Z,23.20
2023-04-16T08:26:13.484Z,21.90
2023-04-16T08:28:41.439Z,20.00
2023-04-16T08:31:09.380Z,20.30
2023-04-16T08:33:37.277Z,18.70
2023-04-16T08:36:05.850Z,18.10
2023-04-16T08:38:33.847Z,17.80
2023-04-16T08:41:05.726Z,18.20
2023-04-16T08:43:34.359Z,18.30
2023-04-16T08:46:02.308Z,18.30
2023-04-16T08:48:33.203Z,18.90
2023-04-16T08:51:02.526Z,17.70
2023-04-16T08:53:37.546Z,19.60
2023-04-16T08:56:06.414Z,17.50
2023-04-16T08:58:35.768Z,20.90
2023-04-16T09:01:03.977Z,21.50
2023-04-16T09:03:35.583Z,18.40
2023-04-16T09:06:04.792Z,17.90
2023-04-16T09:08:32.766Z,19.50
2023-04-16T09:11:00.617Z,19.00
2023-04-16T09:13:28.794Z,16.70
2023-04-16T09:15:57.400Z,17.20
2023-04-16T09:18:28.549Z,16.50
2023-04-16T09:20:57.192Z,17.60
2023-04-16T09:23:25.251Z,17.20
2023-04-16T09:25:53.055Z,16.30
2023-04-16T09:28:45.171Z,16.10
2023-04-16T09:31:18.165Z,16.30
2023-04-16T09:34:09.274Z,15.50
2023-04-16T09:36:37.221Z,15.40
2023-04-16T09:39:05.153Z,13.50
2023-04-16T09:41:36.215Z,13.90
2023-04-16T09:44:05.472Z,16.20
2023-04-16T09:46:42.899Z,15.60
2023-04-16T09:49:15.789Z,14.30
2023-04-16T09:51:46.941Z,15.30
2023-04-16T09:54:15.597Z,15.60
2023-04-16T09:56:46.449Z,16.60
2023-04-16T09:59:22.654Z,15.90
2023-04-16T10:02:14.283Z,14.80
2023-04-16T10:04:49.978Z,13.00
2023-04-16T10:07:18.405Z,15.10
2023-04-16T10:09:49.721Z,13.70
2023-04-16T10:12:19.437Z,15.60
2023-04-16T10:14:48.934Z,13.80
2023-04-16T10:17:17.964Z,14.10
2023-04-16T10:19:46.228Z,14.80
2023-04-16T10:22:14.247Z,16.30
2023-04-16T10:24:43.239Z,16.40
2023-04-16T10:27:11.236Z,14.20
2023-04-16T10:29:39.112Z,13.40
2023-04-16T10:32:07.138Z,14.40
2023-04-16T10:34:36.690Z,12.60
2023-04-16T10:37:04.555Z,15.30
2023-04-16T10:39:34.588Z,15.00
2023-04-16T10:42:09.799Z,14.40
2023-04-16T10:44:37.706Z,14.60
2023-04-16T10:47:13.438Z,24.60
2023-04-16T10:49:42.493Z,18.80
2023-04-16T10:52:17.228Z,17.80
2023-04-16T10:54:46.808Z,15.10
2023-04-16T10:57:19.838Z,24.40
2023-04-16T10:59:48.868Z,20.00
2023-04-16T11:02:19.737Z,25.40
2023-04-16T11:04:49.085Z,24.40
2023-04-16T11:07:21.102Z,16.40
2023-04-16T11:10:12.910Z,15.20
2023-04-16T11:12:45.189Z,14.70
2023-04-16T11:15:17.140Z,15.70
2023-04-16T11:17:48.391Z,22.00
2023-04-16T11:20:24.835Z,17.50
2023-04-16T11:22:54.860Z,15.20
2023-04-16T11:25:24.864Z,15.40
2023-04-16T11:27:53.357Z,13.70
2023-04-16T11:30:41.937Z,14.20
2023-04-16T11:33:12.085Z,13.00
2023-04-16T11:35:41.563Z,12.80
2023-04-16T11:38:09.490Z,14.10
2023-04-16T11:40:37.951Z,12.40
2023-04-16T11:43:16.390Z,13.40
2023-04-16T11:46:02.637Z,12.40
2023-04-16T11:48:53.752Z,12.20
2023-04-16T11:51:23.607Z,12.70
2023-04-16T11:53:53.301Z,12.10
2023-04-16T11:56:35.838Z,12.60
2023-04-16T11:59:23.280Z,13.60
2023-04-16T12:01:53.546Z,15.40
2023-04-16T12:04:27.284Z,12.90
2023-04-16T12:07:14.817Z,13.40
2023-04-16T12:09:43.984Z,12.80
2023-04-16T12:12:32.275Z,13.10
2023-04-16T12:15:04.944Z,11.40
2023-04-16T12:17:35.368Z,12.40
2023-04-16T12:20:09.645Z,12.30
2023-04-16T12:22:40.964Z,11.10
2023-04-16T12:25:16.612Z,11.80
2023-04-16T12:27:53.966Z,10.50
2023-04-16T12:30:24.353Z,13.50
2023-04-16T12:33:15.937Z,12.20
2023-04-16T12:35:45.120Z,13.50
2023-04-16T12:38:15.227Z,13.50
2023-04-16T12:40:43.354Z,13.40
2023-04-16T12:43:11.216Z,13.20
2023-04-16T12:45:42.002Z,13.20
2023-04-16T12:48:10.382Z,15.30
2023-04-16T12:50:39.871Z,12.60
2023-04-16T12:53:07.904Z,11.70
2023-04-16T12:55:35.804Z,12.30
2023-04-16T12:58:03.769Z,11.00
2023-04-16T13:00:31.699Z,11.60
2023-04-16T13:02:59.823Z,9.70
2023-04-16T13:05:28.069Z,11.40
2023-04-16T13:07:56.187Z,11.10
2023-04-16T13:10:24.358Z,11.00
2023-04-16T13:12:52.278Z,11.00
2023-04-16T13:15:20.444Z,10.00
2023-04-16T13:17:48.672Z,9.50
2023-04-16T13:20:16.727Z,9.40
2023-04-16T13:22:44.765Z,9.50
2023-04-16T13:25:12.710Z,9.30
2023-04-16T13:27:40.690Z,8.10
2023-04-16T13:30:09.454Z,10.30
2023-04-16T13:32:37.635Z,8.90
2023-04-16T13:35:06.113Z,8.40
2023-04-16T13:37:34.699Z,9.20
2023-04-16T13:40:02.651Z,8.50
2023-04-16T13:42:30.790Z,7.90
2023-04-16T13:44:59.084Z,8.80
2023-04-16T13:47:26.993Z,7.50
2023-04-16T13:49:55.007Z,7.10
2023-04-16T13:52:22.846Z,7.90
2023-04-16T13:54:50.749Z,8.70
2023-04-16T13:57:22.204Z,6.90
2023-04-16T13:59:50.039Z,7.90
2023-04-16T14:02:18.007Z,8.20
2023-04-16T14:04:46.319Z,7.40
2023-04-16T14:07:14.546Z,6.90
2023-04-16T14:09:42.303Z,8.00
2023-04-16T14:12:10.093Z,7.30
2023-04-16T14:14:38.062Z,7.50
2023-04-16T14:17:07.604Z,8.30
2023-04-16T14:19:35.662Z,7.40
2023-04-16T14:22:03.422Z,8.20
2023-04-16T14:24:31.301Z,8.40
2023-04-16T14:26:59.358Z,9.00
2023-04-16T14:29:27.213Z,9.80
2023-04-16T14:31:55.031Z,7.70
2023-04-16T14:34:23.065Z,7.80
2023-04-16T14:36:52.027Z,8.40
2023-04-16T14:39:19.904Z,9.70
2023-04-16T14:41:47.881Z,7.80
2023-04-16T14:44:15.727Z,8.70
2023-04-16T14:46:43.947Z,7.70
2023-04-16T14:49:12.518Z,10.20
2023-04-16T14:51:41.584Z,9.20
2023-04-16T14:54:09.812Z,10.20
2023-04-16T14:56:37.951Z,10.00
2023-04-16T14:59:06.224Z,10.40
2023-04-16T15:01:34.698Z,11.60
2023-04-16T15:04:03.146Z,11.50
2023-04-16T15:06:32.289Z,10.60
2023-04-16T15:09:00.302Z,9.90
2023-04-16T15:11:28.644Z,10.00
2023-04-16T15:13:57.214Z,10.40
2023-04-16T15:16:25.001Z,11.00
2023-04-16T15:18:52.975Z,11.60
2023-04-16T15:21:21.019Z,11.00
2023-04-16T15:23:48.893Z,12.40
2023-04-16T15:26:17.066Z,9.50
2023-04-16T15:28:44.911Z,11.30
2023-04-16T15:31:12.798Z,13.70
2023-04-16T15:33:40.806Z,14.30
2023-04-16T15:36:08.708Z,12.70
2023-04-16T15:38:36.743Z,13.20
2023-04-16T15:41:04.674Z,12.70
2023-04-16T15:43:32.488Z,11.70
2023-04-16T15:46:00.463Z,11.20
2023-04-16T15:48:29.095Z,11.50
2023-04-16T15:50:57.156Z,10.90
2023-04-16T15:53:24.968Z,10.90
2023-04-16T15:55:53.857Z,12.10
2023-04-16T15:58:21.674Z,10.90
2023-04-16T16:00:50.869Z,10.30
2023-04-16T16:03:19.149Z,10.70
2023-04-16T16:05:48.266Z,10.40
2023-04-16T16:08:16.691Z,10.70
2023-04-16T16:10:44.602Z,9.10
2023-04-16T16:13:14.204Z,9.50
2023-04-16T16:15:42.281Z,9.60
2023-04-16T16:18:10.169Z,9.00
2023-04-16T16:20:39.056Z,9.00
2023-04-16T16:23:07.435Z,8.10
2023-04-16T16:25:35.503Z,9.60
2023-04-16T16:28:06.615Z,9.20
2023-04-16T16:30:34.681Z,8.80
2023-04-16T16:33:02.558Z,9.60
2023-04-16T16:35:30.421Z,10.00
2023-04-16T16:37:59.440Z,10.10
2023-04-16T16:40:27.558Z,9.00
2023-04-16T16:42:55.438Z,9.00
2023-04-16T16:45:25.889Z,9.40
2023-04-16T16:47:55.018Z,10.40
2023-04-16T16:50:23.064Z,11.20
2023-04-16T16:52:51.049Z,10.80
2023-04-16T16:55:20.400Z,11.70
2023-04-16T16:57:48.210Z,11.90
2023-04-16T17:00:21.373Z,11.80
2023-04-16T17:02:51.337Z,10.00
2023-04-16T17:05:20.561Z,10.00
2023-04-16T17:07:49.847Z,11.50
2023-04-16T17:10:20.993Z,9.90
2023-04-16T17:12:49.392Z,9.40
2023-04-16T17:15:19.157Z,11.80
2023-04-16T17:17:48.611Z,10.30
2023-04-16T17:20:16.611Z,9.00
2023-04-16T17:22:44.668Z,12.30
2023-04-16T17:25:12.531Z,9.30
2023-04-16T17:27:40.482Z,10.20
2023-04-16T17:30:09.186Z,11.10
2023-04-16T17:32:37.307Z,11.00
2023-04-16T17:35:07.086Z,13.00
2023-04-16T17:37:34.995Z,9.90
2023-04-16T17:40:07.405Z,12.20
2023-04-16T17:42:36.353Z,12.30
2023-04-16T17:45:05.400Z,11.10
2023-04-16T17:47:36.600Z,11.40
2023-04-16T17:50:05.656Z,10.70
2023-04-16T17:52:33.437Z,14.30
2023-04-16T17:55:01.896Z,17.60
2023-04-16T17:57:30.695Z,18.00
2023-04-16T17:59:58.666Z,17.30
2023-04-16T18:02:26.742Z,17.80
2023-04-16T18:04:55.224Z,18.70
2023-04-16T18:07:23.183Z,21.70
2023-04-16T18:09:51.248Z,23.60
2023-04-16T18:12:19.248Z,22.70
2023-04-16T18:14:47.281Z,20.60
2023-04-16T18:17:15.728Z,19.90
2023-04-16T18:19:44.433Z,19.10
2023-04-16T18:22:13.436Z,20.60
2023-04-16T18:24:41.365Z,20.20
2023-04-16T18:27:09.401Z,16.70
2023-04-16T18:29:39.845Z,21.00
2023-04-16T18:32:11.822Z,19.70
2023-04-16T18:34:40.797Z,18.40
2023-04-16T18:37:08.641Z,18.50
2023-04-16T18:39:37.412Z,20.80
2023-04-16T18:42:05.876Z,19.00
2023-04-16T18:44:34.003Z,18.80
2023-04-16T18:47:02.163Z,20.00
2023-04-16T18:49:30.534Z,18.30
2023-04-16T18:51:58.769Z,19.70
2023-04-16T18:54:27.678Z,20.30
2023-04-16T18:56:57.087Z,18.10
2023-04-16T18:59:26.161Z,17.10
2023-04-16T19:01:54.244Z,18.40
2023-04-16T19:04:22.731Z,18.90
2023-04-16T19:06:51.002Z,19.00
2023-04-16T19:09:20.016Z,20.00
2023-04-16T19:11:50.630Z,20.00
2023-04-16T19:14:18.635Z,20.10
2023-04-16T19:16:47.557Z,19.00
2023-04-16T19:19:17.525Z,22.20
2023-04-16T19:21:45.456Z,22.80
2023-04-16T19:24:13.253Z,20.70
2023-04-16T19:26:41.206Z,22.20
2023-04-16T19:29:09.272Z,22.00
2023-04-16T19:31:37.604Z,20.10
2023-04-16T19:34:05.744Z,20.50
2023-04-16T19:36:33.634Z,23.20
2023-04-16T19:39:01.455Z,22.60
2023-04-16T19:41:29.313Z,23.20
2023-04-16T19:43:57.182Z,24.10
2023-04-16T19:46:25.083Z,25.80
2023-04-16T19:48:52.948Z,22.60
2023-04-16T19:51:20.997Z,23.80
2023-04-16T19:53:48.839Z,21.20
2023-04-16T19:56:17.286Z,21.90
2023-04-16T19:58:45.121Z,20.30
2023-04-16T20:01:12.941Z,20.00
2023-04-16T20:03:41.164Z,21.20
2023-04-16T20:06:09.229Z,20.70
2023-04-16T20:08:36.977Z,19.60
2023-04-16T20:11:05.040Z,20.80
2023-04-16T20:13:33.135Z,20.90
2023-04-16T20:16:01.702Z,19.80
2023-04-16T20:18:29.851Z,22.40
2023-04-16T20:20:57.682Z,21.20
2023-04-16T20:23:25.602Z,19.30
2023-04-16T20:25:53.471Z,22.00
2023-04-16T20:28:21.700Z,22.40
2023-04-16T20:30:50.986Z,22.30
2023-04-16T20:33:19.080Z,22.30
2023-04-16T20:35:47.211Z,22.60
2023-04-16T20:38:15.061Z,19.60
2023-04-16T20:40:45.290Z,23.40
2023-04-16T20:43:14.444Z,21.90
2023-04-16T20:45:46.156Z,24.20
2023-04-16T20:48:14.183Z,24.40
2023-04-16T20:50:42.357Z,22.60
2023-04-16T20:53:10.556Z,23.20
2023-04-16T20:55:38.556Z,22.80
2023-04-16T20:58:06.636Z,26.20
2023-04-16T21:00:34.465Z,22.30
2023-04-16T21:03:02.465Z,23.10
2023-04-16T21:05:30.707Z,22.00
2023-04-16T21:07:58.422Z,21.60
2023-04-16T21:10:26.220Z,22.80
2023-04-16T21:12:54.092Z,20.90
2023-04-16T21:15:22.075Z,23.00
2023-04-16T21:17:49.977Z,19.70
2023-04-16T21:20:18.211Z,21.30
2023-04-16T21:22:46.050Z,21.30
2023-04-16T21:25:13.945Z,20.70
2023-04-16T21:27:41.991Z,19.90
2023-04-16T21:30:10.893Z,19.70
2023-04-16T21:32:39.163Z,22.50
2023-04-16T21:35:08.093Z,23.10
2023-04-16T21:37:36.071Z,22.80
2023-04-16T21:40:06.132Z,23.70
2023-04-16T21:42:39.658Z,21.10
2023-04-16T21:45:10.818Z,20.50
2023-04-16T21:47:38.909Z,23.30
2023-04-16T21:50:08.181Z,23.60
2023-04-16T21:52:40.545Z,22.10
2023-04-16T21:55:09.848Z,23.10
2023-04-16T21:57:37.786Z,23.80
2023-04-16T22:00:18.278Z,22.80
2023-04-16T22:02:46.364Z,19.50
2023-04-16T22:05:14.513Z,20.70
2023-04-16T22:07:42.721Z,19.60
2023-04-16T22:10:11.391Z,21.30
2023-04-16T22:12:40.922Z,19.20
2023-04-16T22:15:10.279Z,21.30
2023-04-16T22:17:38.078Z,20.30
2023-04-16T22:20:11.758Z,19.70
2023-04-16T22:22:41.405Z,20.50
2023-04-16T22:25:09.871Z,21.80
2023-04-16T22:27:38.335Z,22.50
2023-04-16T22:30:09.428Z,23.30
2023-04-16T22:32:37.530Z,20.70
2023-04-16T22:35:06.028Z,22.60
2023-04-16T22:37:33.979Z,19.60
2023-04-16T22:40:02.236Z,20.80
2023-04-16T22:42:30.122Z,21.80
2023-04-16T22:44:57.877Z,23.60
2023-04-16T22:47:25.728Z,23.30
2023-04-16T22:49:54.029Z,21.00
2023-04-16T22:52:21.854Z,22.50
2023-04-16T22:54:49.658Z,21.10
2023-04-16T22:57:21.223Z,22.80
2023-04-16T22:59:49.073Z,24.00
2023-04-16T23:02:17.633Z,23.70
2023-04-16T23:04:46.649Z,21.20
2023-04-16T23:07:15.724Z,22.60
2023-04-16T23:09:43.731Z,19.70
2023-04-16T23:12:11.688Z,20.10
2023-04-16T23:14:39.502Z,22.40
2023-04-16T23:17:07.576Z,24.00
2023-04-16T23:19:35.694Z,20.00
2023-04-16T23:22:04.680Z,23.20
2023-04-16T23:24:32.547Z,23.00
2023-04-16T23:27:01.142Z,20.70
2023-04-16T23:29:28.860Z,20.20
2023-04-16T23:31:58.522Z,21.10
2023-04-16T23:34:26.372Z,21.40
2023-04-16T23:36:54.146Z,21.00
2023-04-16T23:39:21.938Z,21.50
2023-04-16T23:41:49.663Z,19.90
2023-04-16T23:44:17.584Z,21.90
2023-04-16T23:46:45.567Z,20.10
2023-04-16T23:49:13.600Z,19.10
2023-04-16T23:51:41.480Z,19.30
2023-04-16T23:54:09.348Z,20.60
2023-04-16T23:56:37.487Z,23.20
2023-04-16T23:59:05.405Z,22.30
